Time;durP1;ratioP1;P1;durP2;ratioP2;P2;SDS_P1;SDS_P2;PMS_P1;PMS_P2;Temp;Humidity;BMP_temperature;BMP_pressure;BME280_temperature;BME280_humidity;BME280_pressure;Samples;Min_cycle;Max_cycle;Signal;HPM_P1;HPM_P2
2022/11/12 00:00:43;;;;;;;6.25;4.72;;;;;;;18.81;52.49;103086.56;5084428;28;20024;-58
2022/11/12 00:03:09;;;;;;;6.57;4.38;;;;;;;18.81;52.82;103096.47;5084198;28;20065;-60
2022/11/12 00:05:35;;;;;;;6.20;4.50;;;;;;;18.70;52.43;103081.13;5084159;28;20702;-59
2022/11/12 00:08:01;;;;;;;6.50;4.05;;;;;;;18.80;52.77;103100.16;5083656;28;20024;-59
2022/11/12 00:10:27;;;;;;;5.93;4.70;;;;;;;18.79;52.49;103110.09;5084252;28;20024;-58
2022/11/12 00:12:53;;;;;;;6.65;4.43;;;;;;;18.66;52.53;103087.69;5083791;28;20020;-59
2022/11/12 00:15:18;;;;;;;5.90;4.50;;;;;;;18.72;52.34;103098.88;5084084;28;20024;-58
2022/11/12 00:17:44;;;;;;;6.32;4.53;;;;;;;18.76;52.67;103114.84;5083284;28;20115;-58
2022/11/12 00:20:09;;;;;;;5.47;4.00;;;;;;;18.76;52.70;103107.59;5083639;28;20080;-59
2022/11/12 00:22:34;;;;;;;6.72;4.78;;;;;;;18.73;52.47;103113.22;5083257;28;20446;-59
2022/11/12 00:25:00;;;;;;;6.18;4.28;;;;;;;18.76;52.53;103112.16;5084156;28;20495;-59
2022/11/12 00:27:25;;;;;;;7.65;4.53;;;;;;;18.73;52.41;103107.81;5083795;28;20052;-59
2022/11/12 00:29:50;;;;;;;6.05;4.43;;;;;;;18.72;52.22;103103.41;5083944;28;20039;-59
2022/11/12 00:32:16;;;;;;;8.63;4.97;;;;;;;18.56;52.49;103078.56;5083530;28;20023;-59
2022/11/12 00:34:41;;;;;;;5.00;4.07;;;;;;;18.71;52.43;103105.25;5083998;28;20021;-60
2022/11/12 00:37:06;;;;;;;6.65;4.25;;;;;;;18.66;52.40;103098.47;5083206;28;20066;-59
2022/11/12 00:39:32;;;;;;;6.05;4.10;;;;;;;18.68;52.41;103093.81;5083267;28;20033;-59
2022/11/12 00:41:57;;;;;;;4.60;3.78;;;;;;;18.69;52.70;103098.22;5083359;28;20032;-59
2022/11/12 00:44:22;;;;;;;6.95;4.40;;;;;;;18.68;52.28;103104.59;5083900;28;20040;-59
2022/11/12 00:46:48;;;;;;;6.05;4.47;;;;;;;18.68;52.09;103104.59;5083082;28;20033;-59
2022/11/12 00:49:13;;;;;;;6.00;4.25;;;;;;;18.66;52.29;103107.41;5083707;28;20036;-59
2022/11/12 00:51:40;;;;;;;5.75;4.38;;;;;;;18.65;52.27;103102.16;5064875;28;20388;-58
2022/11/12 00:54:05;;;;;;;5.78;4.22;;;;;;;18.65;52.47;103104.84;5082830;28;20048;-59
2022/11/12 00:56:31;;;;;;;6.00;3.90;;;;;;;18.65;52.52;103107.53;5083549;28;20043;-59
2022/11/12 00:58:57;;;;;;;6.13;3.90;;;;;;;18.60;52.51;103098.91;5083244;28;20028;-59
2022/11/12 01:01:23;;;;;;;6.40;4.50;;;;;;;18.62;52.31;103100.53;5083370;28;20096;-60
2022/11/12 01:03:48;;;;;;;4.50;3.90;;;;;;;18.63;52.13;103110.31;5083381;28;20036;-59
2022/11/12 01:06:15;;;;;;;5.70;4.32;;;;;;;18.62;52.25;103108.59;5065179;28;20032;-59
2022/11/12 01:08:42;;;;;;;5.45;3.50;;;;;;;18.61;52.48;103098.81;5082977;28;20673;-59
2022/11/12 01:11:13;;;;;;;5.53;3.97;;;;;;;18.61;52.46;103100.66;5083306;28;20036;-60
2022/11/12 01:13:41;;;;;;;5.70;3.97;;;;;;;18.61;51.96;103095.25;5091657;28;20044;-59
2022/11/12 01:16:18;;;;;;;5.63;3.97;;;;;;;18.56;52.44;103097.41;5103343;28;20557;-59
2022/11/12 01:18:44;;;;;;;5.78;3.78;;;;;;;18.59;52.11;103100.75;5088930;28;20095;-59
2022/11/12 01:21:09;;;;;;;7.57;4.55;;;;;;;18.53;52.17;103092.28;5048092;28;20041;-59
2022/11/12 01:23:36;;;;;;;4.78;3.88;;;;;;;18.57;52.34;103091.06;5065187;28;20075;-59
2022/11/12 01:26:13;;;;;;;6.22;3.92;;;;;;;18.57;52.45;103091.06;5067217;28;20051;-59
2022/11/12 01:28:39;;;;;;;6.03;3.78;;;;;;;18.57;52.12;103104.53;5067318;28;20031;-59
2022/11/12 01:31:19;;;;;;;4.53;3.50;;;;;;;18.56;52.19;103094.72;5067119;28;20037;-59
2022/11/12 01:33:46;;;;;;;5.13;3.72;;;;;;;18.56;52.38;103089.31;5067129;28;20039;-59
2022/11/12 01:36:13;;;;;;;4.55;3.55;;;;;;;18.54;52.06;103085.91;5066555;28;20107;-59
2022/11/12 01:38:40;;;;;;;4.65;3.70;;;;;;;18.53;52.08;103085.03;5066728;28;20033;-59
2022/11/12 01:41:07;;;;;;;4.90;3.70;;;;;;;18.53;51.94;103092.28;5067135;28;20036;-60
2022/11/12 01:43:32;;;;;;;5.47;3.50;;;;;;;18.47;52.18;103083.63;5066875;28;20032;-60
2022/11/12 01:46:01;;;;;;;5.55;3.75;;;;;;;18.53;52.04;103094.97;5066425;28;20032;-60
2022/11/12 01:48:52;;;;;;;4.68;3.40;;;;;;;18.49;51.98;103092.50;5066462;28;20060;-60
2022/11/12 01:51:20;;;;;;;4.82;3.55;;;;;;;18.50;52.07;103082.56;5043649;28;20661;-60
2022/11/12 01:53:46;;;;;;;5.25;3.95;;;;;;;18.48;52.02;103082.69;5048436;28;20084;-58
2022/11/12 01:56:12;;;;;;;6.22;3.70;;;;;;;18.49;52.31;103089.78;5066433;28;20115;-59
2022/11/12 01:58:39;;;;;;;4.60;3.60;;;;;;;18.41;52.03;103073.34;5066633;28;20039;-59
2022/11/12 02:01:04;;;;;;;4.82;3.47;;;;;;;18.47;52.23;103098.94;5031925;28;20032;-59
2022/11/12 02:03:30;;;;;;;5.05;3.67;;;;;;;18.11;52.37;103027.97;5066446;28;20032;-59
2022/11/12 02:06:00;;;;;;;4.65;3.28;;;;;;;18.46;52.27;103081.94;5066439;28;20112;-60
2022/11/12 02:08:27;;;;;;;4.78;3.50;;;;;;;18.46;52.01;103083.75;5065880;28;20068;-59
2022/11/12 02:10:52;;;;;;;5.38;3.58;;;;;;;18.46;51.99;103094.53;5048999;28;20151;-59
2022/11/12 02:16:03;;;;;;;6.00;4.03;;;;;;;18.45;51.97;103079.34;5050792;28;20036;-60
2022/11/12 02:18:29;;;;;;;5.35;3.90;;;;;;;18.43;52.25;103073.22;5028233;28;20025;-59
2022/11/12 02:20:56;;;;;;;5.13;3.63;;;;;;;18.41;51.96;103073.34;5074663;28;20049;-59
2022/11/12 02:23:21;;;;;;;5.63;4.07;;;;;;;18.36;51.87;103061.19;5067557;28;20038;-59
2022/11/12 02:25:47;;;;;;;5.28;3.50;;;;;;;18.42;51.81;103074.19;5068142;28;20037;-58
2022/11/12 02:28:12;;;;;;;4.35;3.40;;;;;;;18.41;52.10;103072.47;5086006;28;20496;-59
2022/11/12 02:30:43;;;;;;;4.22;3.33;;;;;;;18.35;51.90;103067.53;5086313;28;20060;-59
2022/11/12 02:33:08;;;;;;;5.22;3.45;;;;;;;18.39;51.74;103072.59;5086039;28;20032;-58
2022/11/12 02:35:34;;;;;;;5.65;3.72;;;;;;;18.38;51.90;103061.91;5084343;28;20370;-59
2022/11/12 02:37:59;;;;;;;5.03;3.42;;;;;;;18.37;51.97;103058.38;5085625;28;20115;-59
2022/11/12 02:40:25;;;;;;;4.10;3.47;;;;;;;18.37;51.91;103049.44;5086030;28;20033;-59
2022/11/12 02:42:50;;;;;;;4.20;3.20;;;;;;;18.36;51.73;103062.03;5085573;28;20026;-60
2022/11/12 02:45:16;;;;;;;4.85;3.10;;;;;;;18.35;51.93;103062.13;5086064;28;20024;-59
2022/11/12 02:47:41;;;;;;;4.30;3.15;;;;;;;18.36;51.84;103064.75;5085300;28;20024;-59
2022/11/12 02:50:07;;;;;;;4.32;3.08;;;;;;;18.35;52.11;103064.81;5085683;28;20061;-59
2022/11/12 02:52:33;;;;;;;4.28;3.30;;;;;;;18.35;51.92;103062.13;5085445;28;20036;-59
2022/11/12 02:54:59;;;;;;;5.60;3.55;;;;;;;18.34;51.97;103061.28;5085166;28;20024;-60
2022/11/12 02:57:25;;;;;;;4.57;3.20;;;;;;;18.30;51.75;103046.31;5085484;28;20054;-60
2022/11/12 02:59:50;;;;;;;4.55;3.42;;;;;;;18.33;52.00;103050.63;5085753;28;20058;-59
2022/11/12 03:02:15;;;;;;;5.18;3.63;;;;;;;18.33;51.96;103054.19;5085344;28;20025;-59
2022/11/12 03:04:41;;;;;;;5.13;3.03;;;;;;;18.31;51.88;103061.53;5085583;28;20465;-59
2022/11/12 03:07:06;;;;;;;4.05;3.53;;;;;;;18.31;51.96;103058.84;5084926;28;20028;-59
2022/11/12 03:09:31;;;;;;;4.38;3.22;;;;;;;18.31;51.88;103052.56;5085010;28;20066;-59
2022/11/12 03:11:56;;;;;;;4.53;3.47;;;;;;;18.31;52.10;103049.88;5085246;28;20039;-59
2022/11/12 03:14:22;;;;;;;5.28;3.35;;;;;;;18.30;52.20;103053.53;5085498;28;20084;-59
2022/11/12 03:16:47;;;;;;;4.13;3.35;;;;;;;18.29;52.07;103066.16;5084180;28;20037;-59
2022/11/12 03:19:12;;;;;;;3.90;2.95;;;;;;;18.30;51.84;103064.31;5085101;28;20029;-58
2022/11/12 03:21:37;;;;;;;4.15;3.42;;;;;;;18.29;52.08;103065.28;5084834;28;20021;-57
2022/11/12 03:24:03;;;;;;;4.07;3.47;;;;;;;18.29;51.95;103059.91;5084736;28;20028;-59
2022/11/12 03:26:28;;;;;;;5.45;3.13;;;;;;;18.28;51.92;103055.50;5085222;28;20453;-59
2022/11/12 03:28:53;;;;;;;4.85;3.55;;;;;;;18.27;51.91;103051.94;5066775;28;20051;-59
2022/11/12 03:31:19;;;;;;;4.40;3.15;;;;;;;18.20;52.18;103042.59;5084952;28;20047;-60
2022/11/12 03:33:44;;;;;;;3.40;3.10;;;;;;;18.26;51.93;103050.22;5084971;28;20029;-60
2022/11/12 03:36:10;;;;;;;4.78;3.20;;;;;;;18.27;52.06;103064.56;5084516;28;20036;-60
2022/11/12 03:38:36;;;;;;;3.53;2.80;;;;;;;18.06;52.07;103030.16;5084203;28;20509;-60
2022/11/12 03:41:01;;;;;;;3.95;3.17;;;;;;;18.26;51.98;103057.44;5085284;28;20083;-60
2022/11/12 03:43:26;;;;;;;4.47;3.28;;;;;;;18.24;51.97;103061.09;5084386;28;20042;-60
2022/11/12 03:45:51;;;;;;;3.97;3.08;;;;;;;18.24;52.09;103061.09;5083783;28;20031;-60
2022/11/12 03:48:17;;;;;;;4.55;2.78;;;;;;;18.24;52.20;103057.56;5084099;28;20063;-59
2022/11/12 03:50:42;;;;;;;3.45;2.90;;;;;;;18.23;52.04;103059.38;5084276;28;20036;-60
2022/11/12 03:53:07;;;;;;;3.38;3.08;;;;;;;18.21;51.96;103055.06;5083766;28;20032;-60
2022/11/12 03:55:33;;;;;;;3.25;2.67;;;;;;;17.95;52.18;103014.75;5084341;28;20060;-60
2022/11/12 03:57:58;;;;;;;3.67;2.70;;;;;;;18.23;52.12;103048.63;5084155;28;20020;-60
2022/11/12 04:00:25;;;;;;;6.80;3.75;;;;;;;18.22;51.90;103054.97;5084557;28;20025;-60
2022/11/12 04:02:50;;;;;;;5.20;3.60;;;;;;;18.22;52.20;103051.41;5066289;28;20024;-60
2022/11/12 04:10:46;;;;;;;3.67;3.20;;;;;;;18.08;51.79;103044.34;5084599;28;20053;-59
2022/11/12 04:13:26;;;;;;;3.47;2.67;;;;;;;18.21;52.28;103057.75;5083742;28;20076;-60
2022/11/12 04:21:51;;;;;;;3.67;2.83;;;;;;;18.18;52.06;103064.25;5083464;28;20090;-60
2022/11/12 04:27:03;;;;;;;4.18;3.28;;;;;;;18.15;52.11;103050.16;5083837;28;20046;-60
2022/11/12 04:32:12;;;;;;;3.47;3.00;;;;;;;18.09;52.23;103045.19;5083713;28;20087;-59
2022/11/12 04:34:37;;;;;;;4.35;3.08;;;;;;;18.15;51.98;103061.78;5083505;28;20041;-59
2022/11/12 04:37:03;;;;;;;5.80;3.50;;;;;;;18.15;51.80;103056.38;5083061;28;20043;-60
2022/11/12 04:39:29;;;;;;;3.35;2.65;;;;;;;18.15;51.58;103061.78;5083430;28;20033;-59
2022/11/12 04:47:22;;;;;;;3.40;2.65;;;;;;;18.14;51.95;103068.13;5083249;28;20035;-60
2022/11/12 04:49:48;;;;;;;3.60;2.70;;;;;;;18.13;51.88;103058.31;5083599;28;20032;-59
2022/11/12 04:52:13;;;;;;;2.88;2.50;;;;;;;18.06;51.99;103042.75;5082978;28;20059;-59
2022/11/12 04:54:39;;;;;;;3.70;3.08;;;;;;;18.14;52.17;103059.22;5083201;28;20024;-59
2022/11/12 04:57:04;;;;;;;3.78;3.20;;;;;;;18.14;52.07;103053.81;5064685;28;20028;-59
2022/11/12 04:59:29;;;;;;;4.50;2.97;;;;;;;18.12;51.68;103051.22;5069135;28;20119;-59
2022/11/12 05:01:55;;;;;;;2.90;2.42;;;;;;;18.13;51.82;103052.06;5063044;28;20542;-59
2022/11/12 05:04:20;;;;;;;3.58;3.00;;;;;;;18.13;52.02;103061.00;5066276;28;20063;-59
2022/11/12 05:06:53;;;;;;;3.10;2.60;;;;;;;18.06;51.84;103035.53;5083055;28;20135;-59
2022/11/12 05:09:19;;;;;;;4.30;3.75;;;;;;;18.10;51.98;103046.94;5073844;28;20041;-59
2022/11/12 05:11:45;;;;;;;3.63;2.75;;;;;;;18.11;51.89;103057.59;5067490;28;20033;-59
2022/11/12 05:14:10;;;;;;;3.83;2.85;;;;;;;18.05;51.94;103049.06;5082714;28;20728;-59
2022/11/12 05:16:36;;;;;;;3.58;3.08;;;;;;;18.12;52.02;103056.59;5082486;28;20037;-59
2022/11/12 05:19:01;;;;;;;2.90;2.63;;;;;;;18.11;51.82;103041.44;5083017;28;20054;-59
2022/11/12 05:24:11;;;;;;;3.33;2.83;;;;;;;18.11;51.68;103040.56;5060602;28;20036;-59
2022/11/12 05:26:36;;;;;;;4.00;2.95;;;;;;;18.12;52.25;103040.44;5062620;28;20025;-59
2022/11/12 05:29:01;;;;;;;3.50;2.60;;;;;;;18.13;51.89;103035.94;5062953;28;20024;-59
2022/11/12 05:31:27;;;;;;;4.65;2.70;;;;;;;18.11;52.28;103035.19;5062343;28;20544;-58
2022/11/12 05:33:52;;;;;;;3.25;2.45;;;;;;;18.11;51.94;103033.34;5062488;28;20032;-59
2022/11/12 05:36:17;;;;;;;3.83;2.92;;;;;;;18.07;51.92;103022.94;5061978;28;20107;-59
2022/11/12 05:38:42;;;;;;;4.43;2.80;;;;;;;17.99;51.92;103012.72;5061843;28;20032;-59
2022/11/12 05:41:08;;;;;;;3.00;2.70;;;;;;;18.11;52.03;103036.06;5062742;28;20025;-59
2022/11/12 05:43:33;;;;;;;3.33;2.58;;;;;;;18.11;52.13;103040.56;5062087;28;20627;-59
2022/11/12 05:45:58;;;;;;;4.35;2.83;;;;;;;18.11;52.15;103038.75;5062247;28;20091;-59
2022/11/12 05:48:23;;;;;;;2.92;2.30;;;;;;;18.12;52.07;103032.38;5062398;28;20021;-59
2022/11/12 05:50:50;;;;;;;2.92;2.45;;;;;;;18.12;52.30;103039.59;5062428;28;20029;-59
2022/11/12 05:53:15;;;;;;;2.80;2.50;;;;;;;18.10;51.88;103034.34;5043431;28;20017;-59
2022/11/12 05:55:40;;;;;;;3.40;2.78;;;;;;;18.11;52.28;103035.19;5062721;28;20036;-60
2022/11/12 05:58:06;;;;;;;3.15;2.83;;;;;;;18.10;51.97;103031.66;5062188;28;20021;-59
2022/11/12 06:00:37;;;;;;;2.92;2.35;;;;;;;18.10;52.40;103042.41;5062480;28;20043;-60
2022/11/12 06:03:03;;;;;;;3.72;2.97;;;;;;;18.10;52.10;103039.72;5059898;28;20025;-59
2022/11/12 06:05:28;;;;;;;3.90;3.13;;;;;;;18.10;52.37;103036.16;5061938;28;20067;-59
2022/11/12 06:07:53;;;;;;;3.22;2.50;;;;;;;18.10;52.46;103034.34;5058743;28;20021;-58
2022/11/12 06:10:19;;;;;;;3.95;2.75;;;;;;;18.10;52.38;103039.72;5065472;28;20028;-60
2022/11/12 06:12:44;;;;;;;4.18;2.83;;;;;;;17.98;52.48;103011.84;5065546;28;20088;-60
2022/11/12 06:15:09;;;;;;;3.35;2.47;;;;;;;18.11;52.09;103037.88;5066062;28;20048;-60
2022/11/12 06:17:34;;;;;;;3.38;2.50;;;;;;;18.11;52.60;103037.88;5065405;28;20707;-60
2022/11/12 06:20:00;;;;;;;3.10;2.60;;;;;;;18.11;52.49;103043.28;5072627;28;20096;-60
2022/11/12 06:22:25;;;;;;;5.03;3.20;;;;;;;18.12;52.35;103037.75;5085511;28;20380;-60
2022/11/12 06:24:50;;;;;;;3.33;2.60;;;;;;;18.08;52.64;103035.41;5085602;28;20123;-60
2022/11/12 06:27:15;;;;;;;3.38;2.65;;;;;;;18.12;52.73;103040.44;5085623;28;20058;-60
2022/11/12 06:29:41;;;;;;;3.10;2.65;;;;;;;18.13;52.86;103046.69;5085957;28;20028;-60
2022/11/12 06:32:06;;;;;;;3.35;2.53;;;;;;;18.13;52.49;103047.56;5085135;28;20056;-60
2022/11/12 06:34:32;;;;;;;4.55;2.80;;;;;;;18.04;52.79;103025.84;5086196;28;20155;-61
2022/11/12 06:36:57;;;;;;;4.30;2.53;;;;;;;18.14;53.11;103037.66;5084984;28;20028;-61
2022/11/12 06:39:22;;;;;;;6.13;3.03;;;;;;;18.13;52.72;103033.22;5085170;28;20028;-62
2022/11/12 06:41:47;;;;;;;5.20;3.00;;;;;;;18.11;52.44;103038.75;5085289;28;20115;-61
2022/11/12 06:44:12;;;;;;;3.00;2.55;;;;;;;18.11;52.68;103049.50;5085273;28;20028;-62
2022/11/12 06:46:38;;;;;;;4.10;3.10;;;;;;;18.08;52.92;103047.03;5085153;28;20063;-60
2022/11/12 06:49:03;;;;;;;5.78;3.05;;;;;;;18.12;52.59;103062.00;5067074;28;20084;-61
2022/11/12 06:51:28;;;;;;;4.40;3.10;;;;;;;18.12;52.91;103056.59;5084423;28;20563;-61
2022/11/12 06:53:54;;;;;;;4.13;3.25;;;;;;;18.12;52.87;103050.38;5084563;28;20027;-61
2022/11/12 06:56:20;;;;;;;4.30;3.47;;;;;;;18.13;52.86;103061.00;5085554;28;20016;-61
2022/11/12 06:58:45;;;;;;;4.03;3.63;;;;;;;18.06;53.03;103053.50;5084851;28;20035;-62
2022/11/12 07:01:13;;;;;;;4.40;4.00;;;;;;;18.13;52.72;103062.84;5085171;28;20036;-62
2022/11/12 07:03:39;;;;;;;5.75;4.07;;;;;;;18.16;52.93;103066.19;5084917;28;20088;-61
2022/11/12 07:06:10;;;;;;;4.70;4.05;;;;;;;18.16;52.98;103065.31;5085027;28;20092;-59
2022/11/12 07:08:36;;;;;;;5.65;4.60;;;;;;;18.15;52.74;103059.09;5084307;28;20079;-59
2022/11/12 07:11:01;;;;;;;4.78;4.13;;;;;;;18.15;53.07;103063.63;5067116;28;20208;-59
2022/11/12 07:13:30;;;;;;;4.82;3.97;;;;;;;18.17;52.95;103067.03;5078040;28;20032;-59
2022/11/12 07:15:57;;;;;;;6.05;4.43;;;;;;;18.17;53.00;103075.13;5076348;28;20095;-59
2022/11/12 07:18:23;;;;;;;5.68;4.53;;;;;;;18.18;52.98;103076.81;5067606;28;20087;-59
2022/11/12 07:20:48;;;;;;;5.35;4.45;;;;;;;18.16;52.70;103076.94;5075339;28;20048;-60
2022/11/12 07:23:13;;;;;;;7.20;5.15;;;;;;;18.13;52.73;103066.41;5083726;28;20031;-60
2022/11/12 07:25:38;;;;;;;6.35;4.40;;;;;;;18.18;53.03;103068.75;5084495;28;20021;-60
2022/11/12 07:28:03;;;;;;;5.95;4.70;;;;;;;18.19;52.76;103075.88;5084414;28;20024;-61
2022/11/12 07:30:29;;;;;;;5.90;5.20;;;;;;;18.18;52.55;103076.81;5084806;28;20031;-61
2022/11/12 07:32:56;;;;;;;5.10;4.60;;;;;;;18.20;52.74;103077.59;5084392;28;20036;-61
2022/11/12 07:35:21;;;;;;;6.25;5.05;;;;;;;18.20;52.53;103082.97;5081732;28;20469;-60
2022/11/12 07:37:47;;;;;;;5.03;4.53;;;;;;;18.21;52.70;103090.94;5084226;28;20025;-61
2022/11/12 07:40:12;;;;;;;5.75;4.80;;;;;;;18.22;52.77;103089.09;5084127;28;20069;-61
2022/11/12 07:42:37;;;;;;;8.30;5.00;;;;;;;18.22;52.55;103092.69;5084257;28;20028;-60
2022/11/12 07:45:03;;;;;;;6.45;5.53;;;;;;;18.24;52.66;103088.03;5084363;28;20073;-60
2022/11/12 07:47:28;;;;;;;5.65;4.68;;;;;;;18.21;52.59;103080.16;5065469;28;20023;-61
2022/11/12 07:49:54;;;;;;;5.10;4.60;;;;;;;18.22;52.59;103086.41;5084218;28;20038;-60
2022/11/12 07:52:20;;;;;;;5.75;4.82;;;;;;;18.19;52.49;103084.81;5083781;28;20017;-61
2022/11/12 07:54:45;;;;;;;5.72;4.57;;;;;;;18.27;52.64;103102.25;5083266;28;20027;-61
2022/11/12 07:57:11;;;;;;;6.18;5.13;;;;;;;18.28;52.55;103102.13;5084181;28;20024;-60
2022/11/12 07:59:36;;;;;;;5.90;4.65;;;;;;;18.31;52.25;103101.03;5084107;28;20396;-61
2022/11/12 08:02:01;;;;;;;6.20;4.97;;;;;;;18.29;52.42;103093.06;5083375;28;20017;-60
2022/11/12 08:04:26;;;;;;;7.25;5.70;;;;;;;18.38;52.08;103105.00;5083634;28;20025;-60
2022/11/12 08:06:52;;;;;;;5.75;4.70;;;;;;;18.41;52.21;103111.03;5083323;28;20025;-60
2022/11/12 08:09:17;;;;;;;5.47;4.70;;;;;;;18.45;52.12;103115.22;5083633;28;20020;-61
2022/11/12 08:11:42;;;;;;;5.88;4.97;;;;;;;18.47;51.83;103112.41;5083328;28;20456;-60
2022/11/12 08:14:07;;;;;;;5.85;4.47;;;;;;;18.49;51.98;103115.88;5083783;28;20027;-61
2022/11/12 08:16:33;;;;;;;4.82;4.22;;;;;;;18.50;51.69;103112.19;5083127;28;20036;-60
2022/11/12 08:18:59;;;;;;;6.07;4.80;;;;;;;18.49;51.63;103111.34;5065324;28;20031;-60
2022/11/12 08:21:25;;;;;;;4.70;4.22;;;;;;;18.54;51.83;103115.53;5083244;28;20059;-60
2022/11/12 08:23:50;;;;;;;4.90;4.38;;;;;;;18.48;51.72;103111.47;5062155;28;20028;-61
2022/11/12 08:26:16;;;;;;;5.18;4.15;;;;;;;18.60;51.84;103125.84;5083684;28;20032;-61
2022/11/12 08:28:42;;;;;;;5.00;4.30;;;;;;;18.55;51.56;103109.16;5083206;28;20023;-61
2022/11/12 08:31:16;;;;;;;4.85;4.35;;;;;;;18.68;51.60;103127.00;5083519;28;20075;-61
2022/11/12 08:33:42;;;;;;;5.32;4.10;;;;;;;18.75;51.47;103126.59;5075979;28;20669;-61
2022/11/12 08:36:09;;;;;;;5.28;4.55;;;;;;;18.78;51.26;103108.38;5082780;28;20033;-62
2022/11/12 08:38:34;;;;;;;5.65;4.35;;;;;;;18.82;51.14;103112.56;5082572;28;20032;-60
2022/11/12 08:41:04;;;;;;;5.05;4.53;;;;;;;18.85;50.99;103108.75;5083401;28;20115;-61
2022/11/12 08:43:30;;;;;;;4.95;4.05;;;;;;;18.89;50.85;103112.94;5065000;28;20016;-61
2022/11/12 08:45:59;;;;;;;4.80;4.30;;;;;;;18.93;51.15;103123.38;5064869;28;20085;-60
2022/11/12 08:48:25;;;;;;;5.78;4.55;;;;;;;18.97;50.83;103124.00;5080297;28;20020;-61
2022/11/12 08:50:51;;;;;;;5.25;4.47;;;;;;;18.87;50.65;103102.28;5082750;28;20019;-60
2022/11/12 08:53:16;;;;;;;5.82;4.25;;;;;;;19.06;50.56;103133.25;5082246;28;20646;-59
2022/11/12 08:55:41;;;;;;;5.82;4.50;;;;;;;19.01;50.66;103120.13;5083265;28;20028;-60
2022/11/12 08:58:07;;;;;;;4.65;3.97;;;;;;;19.08;50.84;103116.00;5064619;28;20111;-59
2022/11/12 09:00:36;;;;;;;4.57;4.15;;;;;;;19.12;50.53;103128.25;5082998;28;20020;-60
2022/11/12 09:03:02;;;;;;;;;;;;;;;19.14;50.41;103122.75;5083123;28;20020;-60
2022/11/12 09:05:28;;;;;;;4.00;3.65;;;;;;;19.16;50.67;103131.59;5082498;28;19920;-60
2022/11/12 09:08:01;;;;;;;4.35;3.85;;;;;;;19.15;50.38;103135.25;5082376;28;20040;-59
2022/11/12 09:10:27;;;;;;;6.57;4.40;;;;;;;19.15;50.12;103127.16;5082003;28;20047;-60
2022/11/12 09:12:53;;;;;;;5.68;4.28;;;;;;;19.15;50.33;103137.94;5082792;28;20025;-61
2022/11/12 09:15:19;;;;;;;5.18;4.18;;;;;;;19.13;50.59;103132.66;5083092;28;20029;-62
2022/11/12 09:17:44;;;;;;;4.78;4.00;;;;;;;19.14;50.12;103129.00;5082893;28;20056;-63
2022/11/12 09:20:10;;;;;;;4.50;4.07;;;;;;;19.11;50.25;103123.81;5091151;28;20102;-62
2022/11/12 09:22:35;;;;;;;4.60;3.90;;;;;;;19.14;50.29;103122.75;5091113;28;20060;-62
2022/11/12 09:25:00;;;;;;;5.70;3.95;;;;;;;19.13;50.13;103124.56;5082131;28;20212;-62
2022/11/12 09:27:26;;;;;;;4.63;3.80;;;;;;;19.11;50.44;103118.44;5083114;28;20033;-62
2022/11/12 09:29:51;;;;;;;6.90;4.38;;;;;;;19.09;50.40;103123.09;5082951;28;20048;-62
2022/11/12 09:32:17;;;;;;;5.03;4.32;;;;;;;19.08;50.42;103124.06;5083003;28;20481;-62
2022/11/12 09:34:42;;;;;;;4.78;3.97;;;;;;;19.09;50.25;103122.25;5083000;28;20067;-62
2022/11/12 09:37:07;;;;;;;6.13;3.70;;;;;;;19.01;50.25;103111.16;5082484;28;20055;-62
2022/11/12 09:39:32;;;;;;;6.90;4.60;;;;;;;19.05;50.38;103121.59;5082804;28;20025;-62
2022/11/12 09:41:58;;;;;;;4.95;3.38;;;;;;;19.04;50.33;103121.72;5082947;28;20032;-62
2022/11/12 09:44:23;;;;;;;5.10;3.72;;;;;;;19.04;50.36;103135.22;5085135;28;20060;-62
2022/11/12 09:46:59;;;;;;;5.13;4.15;;;;;;;18.97;50.36;103111.38;5086166;28;20020;-62
2022/11/12 09:49:31;;;;;;;5.75;4.15;;;;;;;18.97;50.56;103118.63;5069204;28;20025;-62
2022/11/12 09:52:08;;;;;;;4.32;3.35;;;;;;;19.03;50.56;103130.78;5068012;28;20033;-62
2022/11/12 09:54:34;;;;;;;5.85;3.92;;;;;;;18.94;50.51;103108.91;5068783;28;20056;-62
2022/11/12 09:56:59;;;;;;;4.55;3.42;;;;;;;19.02;50.44;103121.81;5068200;28;20028;-61
2022/11/12 09:59:40;;;;;;;6.00;3.80;;;;;;;19.02;50.40;103132.59;5086911;28;20115;-62
2022/11/12 10:02:29;;;;;;;8.00;3.97;;;;;;;19.02;50.82;103119.13;5086257;28;20025;-61
2022/11/12 10:05:05;;;;;;;6.28;3.67;;;;;;;19.03;50.81;103128.06;5086583;28;20067;-62
2022/11/12 10:07:42;;;;;;;6.32;3.50;;;;;;;19.03;50.95;103128.06;5068490;28;20043;-62
2022/11/12 10:10:13;;;;;;;7.18;4.18;;;;;;;19.03;51.05;103122.69;5086241;28;20107;-61
2022/11/12 10:13:06;;;;;;;6.72;4.13;;;;;;;19.04;51.15;103127.13;5068910;28;20012;-64
2022/11/12 10:18:42;;;;;;;7.78;3.88;;;;;;;19.04;51.04;103117.19;5069852;28;20027;-62
2022/11/12 10:21:45;;;;;;;6.68;4.32;;;;;;;19.06;51.34;103117.06;5066155;28;20040;-62
2022/11/12 10:24:10;;;;;;;6.82;3.65;;;;;;;19.07;51.21;103116.94;5063489;28;20032;-62
2022/11/12 10:26:37;;;;;;;7.68;3.92;;;;;;;19.07;51.45;103116.09;5068190;28;20028;-61
2022/11/12 10:29:13;;;;;;;5.38;3.90;;;;;;;19.08;51.33;103121.38;5086202;28;20070;-62
2022/11/12 10:31:38;;;;;;;5.28;3.63;;;;;;;19.07;51.59;103125.03;5067479;28;20031;-61
2022/11/12 10:34:14;;;;;;;3.53;3.15;;;;;;;19.09;51.18;103116.84;5086187;28;20040;-62
2022/11/12 10:36:43;;;;;;;4.90;2.90;;;;;;;19.10;51.24;103119.41;5085636;28;20032;-62
2022/11/12 10:39:08;;;;;;;8.07;3.30;;;;;;;19.02;50.86;103102.09;5085626;28;20024;-62
2022/11/12 10:41:33;;;;;;;5.22;3.92;;;;;;;19.11;51.09;103113.03;5085725;28;20036;-62
2022/11/12 10:44:00;;;;;;;5.60;3.47;;;;;;;19.12;51.09;103108.53;5085826;28;20032;-59
2022/11/12 10:46:29;;;;;;;4.75;3.22;;;;;;;19.12;51.27;103106.69;5084954;28;20017;-60
2022/11/12 10:49:03;;;;;;;6.22;3.75;;;;;;;19.13;51.35;103107.53;5067474;28;20024;-60
2022/11/12 10:51:36;;;;;;;10.75;3.78;;;;;;;19.12;51.53;103100.44;5085262;28;20028;-59
2022/11/12 10:54:34;;;;;;;5.43;3.38;;;;;;;19.10;51.30;103087.06;5085066;28;20056;-59
2022/11/12 10:57:18;;;;;;;8.60;3.60;;;;;;;18.86;51.41;103043.09;5066571;28;20024;-59
2022/11/12 10:59:43;;;;;;;5.43;3.40;;;;;;;18.89;51.35;103046.41;5085868;28;20040;-59
2022/11/12 11:02:17;;;;;;;6.25;3.67;;;;;;;19.19;51.33;103090.88;5078611;28;20568;-62
2022/11/12 11:04:42;;;;;;;7.97;3.42;;;;;;;19.10;51.54;103073.56;5056844;28;20102;-58
2022/11/12 11:07:15;;;;;;;6.05;3.30;;;;;;;19.22;51.58;103096.06;5072185;28;20619;-58
2022/11/12 11:09:51;;;;;;;9.13;4.18;;;;;;;19.23;51.43;103089.66;5054704;28;20082;-60
2022/11/12 11:12:31;;;;;;;7.50;3.30;;;;;;;19.24;51.61;103086.00;5073486;28;20025;-61
2022/11/12 11:15:15;;;;;;;5.57;3.70;;;;;;;19.27;51.93;103082.22;5090608;28;20028;-61
2022/11/12 11:17:40;;;;;;;5.22;3.33;;;;;;;19.25;51.89;103076.94;5084220;28;20028;-61
2022/11/12 11:20:17;;;;;;;5.70;3.90;;;;;;;19.28;52.23;103071.28;5084835;28;20052;-58
2022/11/12 11:22:49;;;;;;;7.63;3.58;;;;;;;19.31;52.10;103064.81;5066535;28;20052;-61
2022/11/12 11:25:27;;;;;;;6.22;3.10;;;;;;;19.33;51.93;103060.19;5066470;28;20036;-61
2022/11/12 11:28:21;;;;;;;4.13;2.80;;;;;;;19.35;52.02;103059.06;5066912;28;20025;-60
2022/11/12 11:30:53;;;;;;;5.70;3.30;;;;;;;19.33;51.97;103055.63;5067298;28;20024;-61
2022/11/12 11:33:38;;;;;;;6.05;3.35;;;;;;;19.36;51.91;103049.13;5084639;28;20025;-61
2022/11/12 11:36:23;;;;;;;7.35;3.42;;;;;;;19.39;51.82;103063.25;5066819;28;20024;-60
2022/11/12 11:39:02;;;;;;;4.10;3.50;;;;;;;19.41;51.76;103052.31;5066404;28;20051;-61
2022/11/12 11:41:44;;;;;;;;;;;;;;;19.42;51.76;103052.22;5085226;28;20024;-58
2022/11/12 11:44:25;;;;;;;5.25;2.80;;;;;;;19.44;51.76;103052.94;5066576;28;19955;-60
2022/11/12 11:47:11;;;;;;;5.05;3.20;;;;;;;19.44;51.66;103046.69;5075056;28;20066;-60
2022/11/12 11:50:12;;;;;;;7.15;3.20;;;;;;;19.37;51.52;103031.94;5073123;28;20477;-60
2022/11/12 11:53:12;;;;;;;3.80;2.80;;;;;;;19.46;51.53;103044.75;4981400;28;20046;-59
2022/11/12 11:55:50;;;;;;;5.70;3.25;;;;;;;19.47;51.72;103047.31;4978608;28;20050;-60
2022/11/12 11:58:40;;;;;;;5.33;3.00;;;;;;;19.48;51.56;103046.31;4947299;29;20111;-60
2022/11/12 12:01:23;;;;;;;5.07;3.08;;;;;;;19.51;51.78;103047.94;4975829;28;20046;-61